createdAt,value
2023-09-27T00:00:31.884Z,99833.03
2023-09-27T00:03:00.833Z,99838.09
2023-09-27T00:05:31.160Z,99832.03
2023-09-27T00:08:00.386Z,99828.72
2023-09-27T00:10:29.547Z,99824.63
2023-09-27T00:12:58.116Z,99832.50
2023-09-27T00:15:26.852Z,99832.00
2023-09-27T00:17:55.661Z,99822.31
2023-09-27T00:20:25.896Z,99820.97
2023-09-27T00:22:56.549Z,99822.44
2023-09-27T00:25:25.228Z,99819.97
2023-09-27T00:27:53.787Z,99826.22
2023-09-27T00:30:22.291Z,99822.09
2023-09-27T00:32:50.938Z,99821.59
2023-09-27T00:35:22.822Z,99819.47
2023-09-27T00:37:53.321Z,99819.28
2023-09-27T00:40:26.035Z,99823.53
2023-09-27T00:42:55.144Z,99824.16
2023-09-27T00:45:23.689Z,99817.56
2023-09-27T00:47:53.719Z,99819.84
2023-09-27T00:50:22.648Z,99805.72
2023-09-27T00:52:51.843Z,99816.38
2023-09-27T00:55:23.311Z,99822.59
2023-09-27T00:57:55.348Z,99820.94
2023-09-27T01:00:24.753Z,99816.81
2023-09-27T01:02:54.659Z,99818.81
2023-09-27T01:05:23.499Z,99811.91
2023-09-27T01:07:52.814Z,99812.22
2023-09-27T01:10:22.940Z,99810.09
2023-09-27T01:12:52.115Z,99819.59
2023-09-27T01:15:20.725Z,99809.06
2023-09-27T01:17:56.136Z,99812.50
2023-09-27T01:20:24.925Z,99805.59
2023-09-27T01:22:59.444Z,99805.88
2023-09-27T01:25:31.473Z,99811.81
2023-09-27T01:28:00.909Z,99804.88
2023-09-27T01:30:34.082Z,99800.78
2023-09-27T01:33:06.797Z,99799.16
2023-09-27T01:35:36.097Z,99793.06
2023-09-27T01:38:07.769Z,99794.19
2023-09-27T01:40:39.040Z,99796.47
2023-09-27T01:43:08.200Z,99794.81
2023-09-27T01:45:37.545Z,99804.34
2023-09-27T01:48:07.494Z,99802.69
2023-09-27T01:50:37.740Z,99803.84
2023-09-27T01:53:08.015Z,99807.78
2023-09-27T01:55:37.163Z,99799.72
2023-09-27T01:58:06.454Z,99801.69
2023-09-27T02:00:35.105Z,99799.22
2023-09-27T02:03:05.290Z,99805.59
2023-09-27T02:05:34.279Z,99796.75
2023-09-27T02:08:03.262Z,99809.84
2023-09-27T02:10:33.192Z,99804.59
2023-09-27T02:13:01.709Z,99801.31
2023-09-27T02:15:30.371Z,99795.25
2023-09-27T02:17:58.913Z,99801.94
2023-09-27T02:20:27.929Z,99801.44
2023-09-27T02:22:57.281Z,99810.97
2023-09-27T02:25:26.880Z,99804.88
2023-09-27T02:27:56.937Z,99797.16
2023-09-27T02:30:25.450Z,99802.22
2023-09-27T02:32:54.156Z,99799.72
2023-09-27T02:35:23.302Z,99792.78
2023-09-27T02:37:51.918Z,99801.81
2023-09-27T02:40:20.555Z,99794.06
2023-09-27T02:42:49.657Z,99800.28
2023-09-27T02:45:19.853Z,99800.09
2023-09-27T02:47:48.710Z,99791.22
2023-09-27T02:50:17.120Z,99790.22
2023-09-27T02:52:46.050Z,99799.72
2023-09-27T02:55:15.611Z,99794.75
2023-09-27T02:57:50.128Z,99791.78
2023-09-27T03:00:20.929Z,99802.72
2023-09-27T03:02:50.170Z,99800.28
2023-09-27T03:05:19.613Z,99796.97
2023-09-27T03:07:49.620Z,99798.09
2023-09-27T03:10:19.438Z,99804.84
2023-09-27T03:12:50.642Z,99798.25
2023-09-27T03:15:21.215Z,99796.91
2023-09-27T03:17:50.770Z,99803.28
2023-09-27T03:20:21.036Z,99808.06
2023-09-27T03:22:50.245Z,99807.53
2023-09-27T03:25:19.728Z,99801.44
2023-09-27T03:27:49.048Z,99806.50
2023-09-27T03:30:20.285Z,99808.78
2023-09-27T03:32:48.930Z,99804.38
2023-09-27T03:35:18.447Z,99807.16
2023-09-27T03:37:48.236Z,99809.41
2023-09-27T03:40:20.599Z,99807.28
2023-09-27T03:42:49.058Z,99805.63
2023-09-27T03:45:18.580Z,99804.28
2023-09-27T03:47:49.685Z,99804.59
2023-09-27T03:50:18.669Z,99805.44
2023-09-27T03:52:47.316Z,99801.81
2023-09-27T03:55:15.882Z,99798.53
2023-09-27T03:57:45.171Z,99808.84
2023-09-27T04:00:18.292Z,99808.00
2023-09-27T04:02:49.037Z,99807.50
2023-09-27T04:05:23.744Z,99808.66
2023-09-27T04:07:52.564Z,99809.78
2023-09-27T04:10:22.009Z,99810.09
2023-09-27T04:12:50.455Z,99811.53
2023-09-27T04:15:19.161Z,99812.66
2023-09-27T04:17:49.145Z,99819.38
2023-09-27T04:20:19.938Z,99826.09
2023-09-27T04:22:50.159Z,99829.19
2023-09-27T04:25:20.168Z,99828.38
2023-09-27T04:27:51.995Z,99823.13
2023-09-27T04:30:22.912Z,99827.00
2023-09-27T04:32:54.057Z,99823.13
2023-09-27T04:35:23.722Z,99825.03
2023-09-27T04:37:52.464Z,99827.31
2023-09-27T04:40:21.524Z,99826.47
2023-09-27T04:42:50.245Z,99828.44
2023-09-27T04:45:18.925Z,99835.16
2023-09-27T04:47:47.618Z,99843.50
2023-09-27T04:50:17.850Z,99845.47
2023-09-27T04:52:46.647Z,99836.28
2023-09-27T04:55:16.182Z,99844.31
2023-09-27T04:57:44.813Z,99845.16
2023-09-27T05:00:20.219Z,99840.72
2023-09-27T05:02:49.567Z,99838.44
2023-09-27T05:05:19.946Z,99840.41
2023-09-27T05:07:49.487Z,99842.88
2023-09-27T05:10:18.406Z,99832.56
2023-09-27T05:12:48.198Z,99843.91
2023-09-27T05:15:17.558Z,99838.91
2023-09-27T05:17:46.221Z,99845.81
2023-09-27T05:20:15.549Z,99842.69
2023-09-27T05:22:45.517Z,99846.81
2023-09-27T05:25:15.073Z,99857.31
2023-09-27T05:27:43.726Z,99857.88
2023-09-27T05:30:13.346Z,99860.34
2023-09-27T05:32:43.709Z,99850.53
2023-09-27T05:35:13.150Z,99862.69
2023-09-27T05:37:44.675Z,99859.56
2023-09-27T05:40:14.546Z,99857.34
2023-09-27T05:42:43.648Z,99862.25
2023-09-27T05:45:13.605Z,99857.19
2023-09-27T05:47:43.089Z,99862.16
2023-09-27T05:50:13.957Z,99871.03
2023-09-27T05:52:45.120Z,99867.94
2023-09-27T05:55:14.364Z,99868.75
2023-09-27T05:57:43.178Z,99871.41
2023-09-27T06:00:24.878Z,99870.81
2023-09-27T06:02:53.884Z,99868.41
2023-09-27T06:05:23.122Z,99864.69
2023-09-27T06:07:54.089Z,99874.56
2023-09-27T06:10:23.480Z,99869.19
2023-09-27T06:12:52.108Z,99868.75
2023-09-27T06:15:21.621Z,99875.03
2023-09-27T06:17:51.159Z,99884.63
2023-09-27T06:20:23.734Z,99887.81
2023-09-27T06:22:54.923Z,99887.06
2023-09-27T06:25:30.309Z,99887.41
2023-09-27T06:27:59.108Z,99884.38
2023-09-27T06:30:27.713Z,99899.53
2023-09-27T06:32:56.461Z,99897.63
2023-09-27T06:35:25.914Z,99907.22
2023-09-27T06:37:56.043Z,99898.53
2023-09-27T06:40:25.871Z,99909.47
2023-09-27T06:42:56.242Z,99909.50
2023-09-27T06:45:25.248Z,99914.34
2023-09-27T06:47:53.946Z,99917.50
2023-09-27T06:50:23.490Z,99918.16
2023-09-27T06:52:57.398Z,99928.56
2023-09-27T06:55:33.578Z,99925.28
2023-09-27T06:58:02.235Z,99923.69
2023-09-27T07:00:30.922Z,99928.47
2023-09-27T07:02:59.784Z,99927.72
2023-09-27T07:05:28.497Z,99928.88
2023-09-27T07:07:57.163Z,99935.97
2023-09-27T07:10:26.501Z,99931.53
2023-09-27T07:12:56.655Z,99931.88
2023-09-27T07:15:25.212Z,99938.16
2023-09-27T07:17:53.970Z,99940.28
2023-09-27T07:20:28.679Z,99944.38
2023-09-27T07:22:58.391Z,99943.25
2023-09-27T07:25:29.951Z,99940.94
2023-09-27T07:28:00.135Z,99939.47
2023-09-27T07:30:28.750Z,99952.81
2023-09-27T07:32:57.932Z,99947.88
2023-09-27T07:35:30.302Z,99944.25
2023-09-27T07:38:00.196Z,99947.09
2023-09-27T07:40:29.304Z,99949.09
2023-09-27T07:42:59.962Z,99949.41
2023-09-27T07:45:32.050Z,99951.03
2023-09-27T07:48:01.112Z,99954.31
2023-09-27T07:50:32.864Z,99955.63
2023-09-27T07:53:04.801Z,99952.16
2023-09-27T07:55:33.756Z,99948.03
2023-09-27T07:58:05.161Z,99957.19
2023-09-27T08:00:34.717Z,99955.00
2023-09-27T08:03:04.325Z,99953.28
2023-09-27T08:05:33.095Z,99943.81
2023-09-27T08:08:01.672Z,99954.00
2023-09-27T08:10:30.806Z,99949.19
2023-09-27T08:12:59.373Z,99944.66
2023-09-27T08:15:29.880Z,99949.72
2023-09-27T08:17:58.826Z,99955.28
2023-09-27T08:20:28.178Z,99956.72
2023-09-27T08:22:57.303Z,99951.41
2023-09-27T08:25:26.239Z,99967.69
2023-09-27T08:27:54.780Z,99956.91
2023-09-27T08:30:23.701Z,99968.06
2023-09-27T08:32:53.879Z,99958.25
2023-09-27T08:35:22.705Z,99952.91
2023-09-27T08:37:51.376Z,99963.25
2023-09-27T08:40:20.610Z,99955.09
2023-09-27T08:42:52.605Z,99953.81
2023-09-27T08:45:24.585Z,99953.59
2023-09-27T08:47:55.673Z,99948.59
2023-09-27T08:50:25.306Z,99949.22
2023-09-27T08:52:54.349Z,99948.19
2023-09-27T08:55:23.241Z,99957.69
2023-09-27T08:57:53.619Z,99942.38
2023-09-27T09:00:28.091Z,99946.25
2023-09-27T09:03:02.706Z,99949.31
2023-09-27T09:05:32.996Z,99940.97
2023-09-27T09:08:05.559Z,99941.13
2023-09-27T09:10:34.892Z,99944.50
2023-09-27T09:13:05.144Z,99941.47
2023-09-27T09:15:38.034Z,99934.13
2023-09-27T09:18:13.130Z,99937.84
2023-09-27T09:20:56.053Z,99930.47
2023-09-27T09:23:34.661Z,99934.44
2023-09-27T09:26:07.317Z,99941.38
2023-09-27T09:28:37.745Z,99939.38
2023-09-27T09:31:07.049Z,99945.47
2023-09-27T09:33:39.712Z,99942.53
2023-09-27T09:36:08.727Z,99950.06
2023-09-27T09:38:37.455Z,99941.84
2023-09-27T09:41:06.442Z,99935.16
2023-09-27T09:43:36.772Z,99930.09
2023-09-27T09:46:07.811Z,99934.66
2023-09-27T09:48:39.976Z,99934.75
2023-09-27T09:51:10.135Z,99935.69
2023-09-27T09:53:44.197Z,99939.47
2023-09-27T09:58:56.886Z,99937.34
2023-09-27T10:01:30.966Z,99938.72
2023-09-27T10:04:05.514Z,99928.75
2023-09-27T10:09:29.663Z,99940.31
2023-09-27T10:11:58.942Z,99938.56
2023-09-27T10:14:27.881Z,99936.66
2023-09-27T10:16:56.528Z,99925.50
2023-09-27T10:19:31.013Z,99924.41
2023-09-27T10:22:08.969Z,99928.59
2023-09-27T10:24:44.581Z,99919.53
2023-09-27T10:27:13.225Z,99924.78
2023-09-27T10:29:57.427Z,99927.00
2023-09-27T10:32:26.133Z,99916.31
2023-09-27T10:34:56.076Z,99906.78
2023-09-27T10:38:00.690Z,99894.97
2023-09-27T10:40:29.425Z,99898.38
2023-09-27T10:42:57.930Z,99881.94
2023-09-27T10:45:26.885Z,99888.78
2023-09-27T10:47:56.501Z,99878.47
2023-09-27T10:50:31.902Z,99882.13
2023-09-27T10:53:02.043Z,99870.50
2023-09-27T10:55:41.412Z,99864.00
2023-09-27T10:58:12.425Z,99859.41
2023-09-27T11:00:53.611Z,99855.16
2023-09-27T11:03:23.090Z,99852.91
2023-09-27T11:05:53.708Z,99843.25
2023-09-27T11:08:24.534Z,99838.91
2023-09-27T11:10:58.154Z,99843.84
2023-09-27T11:13:30.761Z,99832.41
2023-09-27T11:16:10.013Z,99842.53
2023-09-27T11:18:45.705Z,99835.53
2023-09-27T11:21:16.639Z,99830.50
2023-09-27T11:23:55.915Z,99822.59
2023-09-27T11:26:26.213Z,99821.03
2023-09-27T11:28:59.992Z,99818.69
2023-09-27T11:31:31.050Z,99821.97
2023-09-27T11:34:17.072Z,99814.28
2023-09-27T11:36:49.274Z,99814.00
2023-09-27T11:39:19.772Z,99801.59
2023-09-27T11:41:49.030Z,99811.16
2023-09-27T11:44:18.759Z,99809.81
2023-09-27T11:46:48.818Z,99793.19
2023-09-27T11:49:19.357Z,99797.22
2023-09-27T11:51:49.280Z,99782.16
2023-09-27T11:54:17.923Z,99782.28
2023-09-27T11:56:48.354Z,99774.22
2023-09-27T11:59:17.041Z,99774.41
2023-09-27T12:01:45.735Z,99775.81
2023-09-27T12:04:14.525Z,99777.59
2023-09-27T12:06:43.600Z,99788.34
2023-09-27T12:09:13.765Z,99777.75
2023-09-27T12:11:42.501Z,99768.69
2023-09-27T12:14:11.058Z,99765.69
2023-09-27T12:16:39.718Z,99771.41
2023-09-27T12:19:08.495Z,99757.88
2023-09-27T12:21:38.486Z,99763.53
2023-09-27T12:24:07.916Z,99762.22
2023-09-27T12:26:37.989Z,99762.59
2023-09-27T12:29:06.612Z,99763.19
2023-09-27T12:31:35.167Z,99757.91
2023-09-27T12:34:03.766Z,99766.34
2023-09-27T12:36:32.297Z,99755.25
2023-09-27T12:39:00.849Z,99759.78
2023-09-27T12:41:29.467Z,99752.25
2023-09-27T12:43:59.403Z,99743.13
2023-09-27T12:46:29.869Z,99739.34
2023-09-27T12:48:58.411Z,99735.75
2023-09-27T12:51:35.316Z,99734.94
2023-09-27T12:54:11.672Z,99734.59
2023-09-27T12:56:40.431Z,99733.81
2023-09-27T12:59:10.300Z,99733.47
2023-09-27T13:01:40.634Z,99724.31
2023-09-27T13:04:10.718Z,99720.13
2023-09-27T13:06:39.513Z,99727.03
2023-09-27T13:09:08.242Z,99721.25
2023-09-27T13:11:36.960Z,99721.22
2023-09-27T13:14:05.704Z,99725.84
2023-09-27T13:16:35.557Z,99714.88
2023-09-27T13:19:04.231Z,99716.03
2023-09-27T13:21:32.854Z,99722.66
2023-09-27T13:24:01.342Z,99724.00
2023-09-27T13:26:29.843Z,99711.63
2023-09-27T13:28:58.401Z,99717.25
2023-09-27T13:31:33.192Z,99707.44
2023-09-27T13:34:10.271Z,99708.56
2023-09-27T13:36:42.559Z,99702.91
2023-09-27T13:39:15.585Z,99694.38
2023-09-27T13:41:45.758Z,99689.72
2023-09-27T13:44:15.445Z,99681.50
2023-09-27T13:46:45.598Z,99684.25
2023-09-27T13:49:15.570Z,99680.16
2023-09-27T13:51:44.725Z,99680.94
2023-09-27T13:54:15.549Z,99697.56
2023-09-27T13:56:44.097Z,99689.50
2023-09-27T13:59:12.632Z,99686.09
2023-09-27T14:01:41.394Z,99683.78
2023-09-27T14:04:09.995Z,99692.56
2023-09-27T14:06:40.138Z,99684.66
2023-09-27T14:09:08.693Z,99693.22
2023-09-27T14:11:37.652Z,99688.53
2023-09-27T14:14:06.324Z,99682.84
2023-09-27T14:16:34.887Z,99679.06
2023-09-27T14:19:03.572Z,99680.44
2023-09-27T14:21:34.044Z,99668.38
2023-09-27T14:24:04.743Z,99670.91
2023-09-27T14:26:33.329Z,99661.19
2023-09-27T14:29:01.922Z,99661.22
2023-09-27T14:31:30.460Z,99660.78
2023-09-27T14:34:02.074Z,99651.41
2023-09-27T14:36:31.731Z,99646.09
2023-09-27T14:39:00.730Z,99651.34
2023-09-27T14:41:30.666Z,99645.13
2023-09-27T14:44:03.425Z,99642.22
2023-09-27T14:46:34.938Z,99643.38
2023-09-27T14:49:04.293Z,99637.59
2023-09-27T14:51:32.826Z,99641.16
2023-09-27T14:54:01.460Z,99653.28
2023-09-27T14:56:31.413Z,99639.41
2023-09-27T14:59:02.259Z,99642.59
2023-09-27T15:01:31.399Z,99644.47
2023-09-27T15:04:00.052Z,99642.41
2023-09-27T15:06:28.755Z,99643.09
2023-09-27T15:08:57.255Z,99640.63
2023-09-27T15:11:26.459Z,99637.28
2023-09-27T15:13:59.242Z,99641.66
2023-09-27T15:16:27.953Z,99633.44
2023-09-27T15:18:56.526Z,99636.56
2023-09-27T15:21:25.091Z,99642.19
2023-09-27T15:23:54.001Z,99638.47
2023-09-27T15:26:22.719Z,99637.97
2023-09-27T15:28:51.261Z,99640.31
2023-09-27T15:31:21.282Z,99632.94
2023-09-27T15:33:50.642Z,99628.78
2023-09-27T15:36:19.194Z,99630.75
2023-09-27T15:38:47.718Z,99633.47
2023-09-27T15:41:19.621Z,99627.72
2023-09-27T15:43:49.311Z,99631.28
2023-09-27T15:46:19.621Z,99629.16
2023-09-27T15:48:49.823Z,99628.25
2023-09-27T15:51:18.339Z,99628.94
2023-09-27T15:53:46.844Z,99626.81
2023-09-27T15:56:15.420Z,99623.88
2023-09-27T15:58:43.943Z,99627.84
2023-09-27T16:01:13.253Z,99626.13
2023-09-27T16:03:41.943Z,99626.84
2023-09-27T16:06:11.883Z,99624.72
2023-09-27T16:08:40.457Z,99627.44
2023-09-27T16:11:08.947Z,99625.28
2023-09-27T16:13:37.573Z,99624.34
2023-09-27T16:16:06.441Z,99618.59
2023-09-27T16:18:34.995Z,99619.72
2023-09-27T16:21:03.546Z,99619.97
2023-09-27T16:23:33.520Z,99626.69
2023-09-27T16:26:02.079Z,99623.75
2023-09-27T16:28:30.676Z,99624.44
2023-09-27T16:30:59.823Z,99624.69
2023-09-27T16:33:28.555Z,99617.66
2023-09-27T16:35:57.247Z,99613.09
2023-09-27T16:38:26.851Z,99607.31
2023-09-27T16:40:57.195Z,99619.66
2023-09-27T16:43:26.304Z,99619.50
2023-09-27T16:45:55.104Z,99614.53
2023-09-27T16:48:24.928Z,99621.25
2023-09-27T16:50:54.884Z,99613.81
2023-09-27T16:53:23.463Z,99618.09
2023-09-27T16:55:52.491Z,99619.13
2023-09-27T16:58:23.448Z,99614.53
2023-09-27T17:00:53.339Z,99618.81
2023-09-27T17:03:22.998Z,99620.31
2023-09-27T17:05:53.292Z,99617.31
2023-09-27T17:08:22.248Z,99610.34
2023-09-27T17:10:51.658Z,99605.38
2023-09-27T17:13:23.815Z,99612.84
2023-09-27T17:15:53.811Z,99612.72
2023-09-27T17:18:23.723Z,99612.19
2023-09-27T17:20:53.601Z,99610.81
2023-09-27T17:23:22.848Z,99620.75
2023-09-27T17:25:54.219Z,99615.41
2023-09-27T17:28:26.939Z,99618.47
2023-09-27T17:30:59.012Z,99617.97
2023-09-27T17:33:29.377Z,99619.06
2023-09-27T17:36:03.116Z,99616.88
2023-09-27T17:38:33.272Z,99619.59
2023-09-27T17:41:03.324Z,99617.06
2023-09-27T17:43:35.660Z,99618.09
2023-09-27T17:46:21.341Z,99613.56
2023-09-27T17:48:52.316Z,99605.41
2023-09-27T17:51:23.225Z,99607.66
2023-09-27T17:53:54.056Z,99609.94
2023-09-27T17:56:30.101Z,99612.91
2023-09-27T17:59:02.213Z,99610.38
2023-09-27T18:01:33.879Z,99609.47
2023-09-27T18:04:04.671Z,99618.63
2023-09-27T18:06:36.312Z,99610.09
2023-09-27T18:09:07.874Z,99620.78
2023-09-27T18:11:37.302Z,99620.69
2023-09-27T18:14:10.474Z,99620.13
2023-09-27T18:16:42.212Z,99613.19
2023-09-27T18:19:14.731Z,99619.06
2023-09-27T18:21:47.183Z,99617.00
2023-09-27T18:24:17.188Z,99618.88
2023-09-27T18:26:48.580Z,99616.34
2023-09-27T18:29:19.616Z,99622.66
2023-09-27T18:31:50.747Z,99623.38
2023-09-27T18:34:21.862Z,99628.06
2023-09-27T18:36:54.505Z,99619.88
2023-09-27T18:39:26.132Z,99620.63
2023-09-27T18:41:58.636Z,99617.69
2023-09-27T18:44:32.170Z,99619.59
2023-09-27T18:47:04.038Z,99623.09
2023-09-27T18:49:34.741Z,99624.16
2023-09-27T18:52:07.071Z,99624.41
2023-09-27T18:54:37.789Z,99631.47
2023-09-27T18:57:10.965Z,99625.59
2023-09-27T18:59:43.904Z,99635.44
2023-09-27T19:02:16.702Z,99632.03
2023-09-27T19:04:47.538Z,99633.94
2023-09-27T19:07:20.257Z,99633.34
2023-09-27T19:09:51.099Z,99635.59
2023-09-27T19:12:23.793Z,99639.44
2023-09-27T19:15:00.096Z,99630.44
2023-09-27T19:17:32.544Z,99632.31
2023-09-27T19:20:07.304Z,99636.97
2023-09-27T19:22:42.180Z,99626.00
2023-09-27T19:25:14.375Z,99625.41
2023-09-27T19:27:43.861Z,99625.59
2023-09-27T19:30:17.382Z,99632.97
2023-09-27T19:32:48.355Z,99629.19
2023-09-27T19:35:19.949Z,99630.16
2023-09-27T19:37:52.754Z,99622.31
2023-09-27T19:40:24.870Z,99622.84
2023-09-27T19:42:56.495Z,99627.53
2023-09-27T19:45:30.219Z,99626.59
2023-09-27T19:47:59.717Z,99625.28
2023-09-27T19:50:29.501Z,99619.91
2023-09-27T19:52:59.842Z,99623.41
2023-09-27T19:55:32.431Z,99625.25
2023-09-27T19:58:03.036Z,99622.81
2023-09-27T20:00:34.100Z,99619.06
2023-09-27T20:03:04.728Z,99623.38
2023-09-27T20:05:34.613Z,99628.13
2023-09-27T20:08:04.475Z,99626.84
2023-09-27T20:10:35.009Z,99624.38
2023-09-27T20:13:06.323Z,99619.47
2023-09-27T20:15:37.813Z,99626.94
2023-09-27T20:18:08.401Z,99625.63
2023-09-27T20:20:37.856Z,99628.28
2023-09-27T20:23:07.782Z,99634.94
2023-09-27T20:25:37.390Z,99634.00
2023-09-27T20:28:08.017Z,99639.47
2023-09-27T20:30:38.955Z,99633.25
2023-09-27T20:33:08.131Z,99640.34
2023-09-27T20:35:38.002Z,99645.38
2023-09-27T20:38:09.474Z,99646.41
2023-09-27T20:40:38.618Z,99645.31
2023-09-27T20:43:07.231Z,99643.53
2023-09-27T20:45:37.288Z,99643.72
2023-09-27T20:48:06.945Z,99642.75
2023-09-27T20:50:35.528Z,99638.97
2023-09-27T20:53:04.163Z,99643.59
2023-09-27T20:55:32.928Z,99641.81
2023-09-27T20:58:02.991Z,99634.44
2023-09-27T21:00:31.829Z,99637.13
2023-09-27T21:03:02.691Z,99636.47
2023-09-27T21:05:34.035Z,99631.06
2023-09-27T21:08:02.631Z,99633.38
2023-09-27T21:10:31.228Z,99631.59
2023-09-27T21:13:00.173Z,99633.09
2023-09-27T21:15:28.758Z,99640.53
2023-09-27T21:17:57.354Z,99633.16
2023-09-27T21:20:27.254Z,99636.63
2023-09-27T21:22:55.737Z,99628.56
2023-09-27T21:25:24.473Z,99628.44
2023-09-27T21:27:52.954Z,99632.75
2023-09-27T21:30:21.890Z,99633.41
2023-09-27T21:32:50.873Z,99625.34
2023-09-27T21:35:19.482Z,99624.53
2023-09-27T21:37:49.637Z,99629.63
2023-09-27T21:40:19.262Z,99620.41
2023-09-27T21:42:47.788Z,99631.09
2023-09-27T21:45:16.487Z,99635.88
2023-09-27T21:47:45.033Z,99622.22
2023-09-27T21:50:14.466Z,99625.69
2023-09-27T21:52:43.036Z,99625.69
2023-09-27T21:55:13.319Z,99618.78
2023-09-27T21:57:41.985Z,99617.94
2023-09-27T22:00:21.407Z,99615.16
2023-09-27T22:02:50.199Z,99619.91
2023-09-27T22:05:20.638Z,99610.72
2023-09-27T22:07:49.193Z,99606.28
2023-09-27T22:10:19.749Z,99611.03
2023-09-27T22:12:49.761Z,99605.44
2023-09-27T22:15:18.556Z,99607.44
2023-09-27T22:17:50.615Z,99600.19
2023-09-27T22:20:20.025Z,99596.91
2023-09-27T22:22:49.278Z,99602.88
2023-09-27T22:25:20.224Z,99596.75
2023-09-27T22:27:50.283Z,99601.06
2023-09-27T22:30:19.786Z,99596.13
2023-09-27T22:32:50.981Z,99586.91
2023-09-27T22:35:27.120Z,99600.44
2023-09-27T22:37:57.160Z,99601.25
2023-09-27T22:40:27.203Z,99599.94
2023-09-27T22:42:56.641Z,99601.09
2023-09-27T22:45:36.194Z,99601.09
2023-09-27T22:48:06.780Z,99593.03
2023-09-27T22:50:45.845Z,99599.78
2023-09-27T22:53:15.824Z,99596.00
2023-09-27T22:55:51.330Z,99593.88
2023-09-27T22:58:20.434Z,99592.56
2023-09-27T23:00:58.227Z,99586.84
2023-09-27T23:03:29.891Z,99593.09
2023-09-27T23:06:02.561Z,99590.97
2023-09-27T23:08:38.981Z,99596.41
2023-09-27T23:11:10.332Z,99595.09
2023-09-27T23:13:45.813Z,99592.97
2023-09-27T23:16:37.504Z,99595.25
2023-09-27T23:19:06.378Z,99593.97
2023-09-27T23:21:34.255Z,99592.69
2023-09-27T23:24:26.761Z,99591.38
2023-09-27T23:27:05.671Z,99591.16
2023-09-27T23:29:37.599Z,99592.63
2023-09-27T23:32:23.972Z,99589.69
2023-09-27T23:34:55.087Z,99587.56
2023-09-27T23:37:32.296Z,99599.91
2023-09-27T23:40:01.785Z,99594.97
2023-09-27T23:42:35.875Z,99590.88
2023-09-27T23:45:10.563Z,99592.34
2023-09-27T23:47:44.988Z,99591.88
2023-09-27T23:50:17.146Z,99586.94
2023-09-27T23:52:47.991Z,99585.63
2023-09-27T23:55:18.685Z,99570.66
2023-09-27T23:57:49.283Z,99576.91
